| time (UTC) | temp F | wind direction | speed MPH | gust MPH | rain 1hr in | rain 24hr in | rain mn in | humidity % | barometer mb |
| 20260503054550 | 76 | 91 | 0.0 | 0.0 | 0.00 | 1.57 | 1.57 | 100 | 1014.9 |
| 20260503053033 | 75 | 98 | 0.0 | 0.0 | 0.00 | 1.57 | 1.57 | 100 | 1015.1 |
| 20260503051543 | 71 | 94 | 0.0 | 0.0 | 0.00 | 1.57 | 1.57 | 100 | 1015.0 |
| 20260503050029 | 71 | 109 | 0.0 | 0.0 | 0.00 | 1.57 | 1.57 | 100 | 1015.0 |
| 20260503044528 | 73 | 109 | 0.0 | 0.0 | 0.00 | 1.57 | 1.57 | 100 | 1015.0 |
| 20260503043024 | 74 | 109 | 0.0 | 0.0 | 0.00 | 1.57 | 1.57 | 100 | 1015.2 |
| 20260503041530 | 74 | 109 | 0.0 | 0.0 | 0.00 | 1.57 | 1.57 | 100 | 1015.3 |
| 20260503040024 | 75 | 109 | 0.0 | 0.0 | 0.00 | 1.57 | 1.57 | 100 | 1015.4 |
| 20260503034524 | 75 | 109 | 0.0 | 0.0 | 0.00 | 1.57 | 1.57 | 100 | 1015.6 |
| 20260503033023 | 75 | 109 | 0.0 | 0.0 | 0.00 | 1.57 | 1.57 | 100 | 1015.7 |
| 20260503031527 | 74 | 87 | 0.0 | 0.0 | 0.00 | 1.57 | 1.57 | 100 | 1015.5 |
| 20260503030027 | 74 | 78 | 0.0 | 0.0 | 0.00 | 1.57 | 1.57 | 100 | 1015.3 |
| 20260503024520 | 74 | 121 | 0.0 | 0.0 | 0.00 | 1.57 | 1.57 | 100 | 1015.3 |
| 20260503023020 | 74 | 123 | 0.0 | 0.0 | 0.00 | 1.57 | 1.57 | 100 | 1015.3 |
| 20260503021520 | 74 | 134 | 0.0 | 0.0 | 0.00 | 1.57 | 1.57 | 100 | 1015.0 |
| 20260503020018 | 74 | 125 | 0.0 | 0.0 | 0.00 | 1.57 | 1.57 | 100 | 1014.8 |
| 20260503014518 | 74 | 193 | 0.0 | 0.0 | 0.00 | 1.57 | 1.57 | 100 | 1014.8 |
| 20260503013029 | 74 | 151 | 0.0 | 0.0 | 0.00 | 1.57 | 1.57 | 100 | 1014.6 |
| 20260503011517 | 75 | 220 | 0.0 | 0.0 | 0.00 | 1.57 | 1.57 | 100 | 1014.4 |
| 20260503010016 | 75 | 198 | 0.0 | 0.0 | 0.00 | 1.59 | 1.57 | 100 | 1014.3 |
| 20260503004517 | 75 | 122 | 0.0 | 0.0 | 0.00 | 1.59 | 1.57 | 100 | 1014.1 |
| 20260503003022 | 75 | 240 | 0.0 | 0.0 | 0.00 | 1.59 | 1.57 | 100 | 1013.8 |
| 20260503001516 | 75 | 240 | 0.0 | 0.0 | 0.00 | 1.59 | 1.57 | 100 | 1013.7 |
| 20260503000019 | 75 | 240 | 0.0 | 0.0 | 0.01 | 1.69 | 1.57 | 100 | 1013.6 |
| 20260502234519 | 75 | 128 | 0.0 | 0.0 | 0.12 | 1.69 | 1.57 | 100 | 1013.4 |
| 20260502233015 | 75 | 132 | 0.0 | 0.0 | 0.52 | 1.69 | 1.57 | 100 | 1013.2 |
| 20260502231516 | 74 | 281 | 0.0 | 0.0 | 1.09 | 1.69 | 1.57 | 100 | 1012.8 |
| 20260502230014 | 74 | 310 | 0.0 | 0.0 | 1.54 | 1.69 | 1.57 | 100 | 1012.6 |
| 20260502224512 | 74 | 326 | 0.0 | 0.0 | 1.46 | 1.59 | 1.47 | 100 | 1013.0 |
| 20260502223011 | 75 | 36 | 0.0 | 0.0 | 1.17 | 1.29 | 1.17 | 100 | 1013.1 |
| 20260502221506 | 76 | 55 | 0.0 | 0.0 | 0.59 | 0.71 | 0.59 | 100 | 1013.2 |
| 20260502220010 | 77 | 29 | 0.0 | 0.0 | 0.04 | 0.16 | 0.04 | 100 | 1012.7 |
| 20260502214502 | 78 | 65 | 0.0 | 0.0 | 0.01 | 0.13 | 0.01 | 100 | 1012.6 |
| 20260502213105 | 80 | 92 | 0.0 | 0.0 | 0.00 | 0.12 | 0.00 | 100 | 1012.5 |
| 20260502211557 | 80 | 58 | 0.0 | 0.0 | 0.00 | 0.12 | 0.00 | 100 | 1012.3 |
| 20260502210055 | 80 | 299 | 0.0 | 0.0 | 0.00 | 0.12 | 0.00 | 100 | 1012.4 |
| 20260502204558 | 81 | 24 | 0.0 | 0.0 | 0.00 | 0.12 | 0.00 | 100 | 1012.2 |
| 20260502203113 | 81 | 55 | 0.0 | 0.0 | 0.00 | 0.12 | 0.00 | 100 | 1012.2 |
| 20260502201554 | 81 | 325 | 0.0 | 0.0 | 0.00 | 0.12 | 0.00 | 100 | 1012.3 |
| 20260502200045 | 82 | 19 | 0.0 | 0.0 | 0.00 | 0.12 | 0.00 | 100 | 1012.5 |
| 20260502194545 | 83 | 331 | 0.0 | 0.0 | 0.00 | 0.12 | 0.00 | 100 | 1012.5 |
| 20260502193057 | 84 | 30 | 0.0 | 0.0 | 0.00 | 0.12 | 0.00 | 100 | 1012.7 |
| 20260502191543 | 84 | 20 | 0.0 | 0.0 | 0.00 | 0.12 | 0.00 | 99 | 1012.7 |
| 20260502190045 | 85 | 334 | 0.0 | 0.0 | 0.00 | 0.12 | 0.00 | 97 | 1012.8 |
| 20260502184548 | 86 | 353 | 0.0 | 0.0 | 0.00 | 0.12 | 0.00 | 96 | 1012.9 |
| 20260502183039 | 86 | 274 | 0.0 | 0.0 | 0.00 | 0.12 | 0.00 | 94 | 1012.9 |
| 20260502181537 | 87 | 45 | 0.0 | 0.0 | 0.00 | 0.12 | 0.00 | 94 | 1013.1 |
| 20260502123002 | 80 | 76 | 0.0 | 0.0 | 0.00 | 0.12 | 0.00 | 100 | 1014.2 |
| 20260502121600 | 80 | 51 | 0.0 | 0.0 | 0.00 | 0.12 | 0.00 | 100 | 1014.0 |
| 20260502114558 | 78 | 85 | 0.0 | 0.0 | 0.00 | 0.12 | 0.00 | 100 | 1013.9 |
| 20260502111555 | 78 | 70 | 0.0 | 0.0 | 0.00 | 0.12 | 0.00 | 100 | 1013.6 |
| 20260502110050 | 78 | 88 | 0.0 | 0.0 | 0.00 | 0.12 | 0.00 | 100 | 1013.3 |
| 20260502104552 | 77 | 95 | 0.0 | 0.0 | 0.00 | 0.12 | 0.00 | 100 | 1013.1 |
| 20260502101548 | 0 | 0.0 | 0.0 | 0.00 | 0.12 | 0.00 | 1013.0 | ||
| 20260502091525 | 0 | 0.0 | 0.0 | 0.00 | 0.12 | 0.00 | 1012.4 | ||
| 20260502071504 | 75 | 98 | 0.0 | 0.0 | 0.00 | 0.12 | 0.12 | 100 | 1011.6 |
| 20260502070005 | 75 | 98 | 0.0 | 0.0 | 0.00 | 0.12 | 0.12 | 100 | 1011.8 |
| 20260502064504 | 75 | 98 | 0.0 | 0.0 | 0.00 | 0.12 | 0.12 | 100 | 1011.7 |